Time;durP1;ratioP1;P1;durP2;ratioP2;P2;SDS_P1;SDS_P2;PMS_P1;PMS_P2;Temp;Humidity;BMP_temperature;BMP_pressure;BME280_temperature;BME280_humidity;BME280_pressure;Samples;Min_cycle;Max_cycle;Signal;HPM_P1;HPM_P2
2023/05/12 00:01:13;;;;;;;6.97;3.40;;;12.70;99.90;;;;;;6231725;23;20445;-81
2023/05/12 00:03:40;;;;;;;5.25;3.28;;;;;;;;;;6188143;23;20092;-85
2023/05/12 00:06:07;;;;;;;5.22;2.80;;;12.60;99.90;;;;;;6238779;23;20005;-84
2023/05/12 00:08:34;;;;;;;5.13;3.17;;;;;;;;;;6233789;23;20001;-83
2023/05/12 00:11:01;;;;;;;5.10;3.25;;;12.50;99.90;;;;;;6231212;23;20084;-84
2023/05/12 00:13:28;;;;;;;5.07;3.63;;;;;;;;;;6180423;23;20004;-82
2023/05/12 00:15:57;;;;;;;4.22;3.00;;;;;;;;;;6206722;23;20000;-83
2023/05/12 00:18:23;;;;;;;4.47;3.17;;;;;;;;;;6231756;23;20005;-83
2023/05/12 00:20:49;;;;;;;4.78;3.15;;;;;;;;;;6213389;23;19985;-82
2023/05/12 00:23:16;;;;;;;4.45;3.28;;;;;;;;;;6206825;23;20020;-83
2023/05/12 00:25:44;;;;;;;5.38;3.30;;;;;;;;;;6229135;23;20067;-80
2023/05/12 00:28:10;;;;;;;4.43;3.17;;;;;;;;;;6207099;23;20005;-85
2023/05/12 00:30:37;;;;;;;5.93;3.58;;;;;;;;;;6202397;23;20005;-82
2023/05/12 00:33:04;;;;;;;4.40;3.15;;;12.40;99.90;;;;;;6226501;23;20001;-84
2023/05/12 00:35:30;;;;;;;6.05;3.60;;;;;;;;;;6200075;23;20009;-82
2023/05/12 00:37:56;;;;;;;5.30;3.45;;;;;;;;;;6200318;23;20004;-83
2023/05/12 00:40:23;;;;;;;4.40;3.25;;;;;;;;;;6200141;23;20011;-83
2023/05/12 00:45:32;;;;;;;5.57;3.78;;;;;;;;;;6256113;23;20028;-82
2023/05/12 00:47:58;;;;;;;6.72;3.45;;;;;;;;;;6256654;23;20026;-83
2023/05/12 00:50:26;;;;;;;5.30;3.55;;;12.50;99.90;;;;;;6228561;23;20321;-81
2023/05/12 00:52:52;;;;;;;5.95;4.05;;;;;;;;;;6208492;23;20001;-81
2023/05/12 00:55:21;;;;;;;5.40;3.40;;;12.50;99.90;;;;;;6201118;23;20000;-83
2023/05/12 00:57:47;;;;;;;4.90;3.58;;;;;;;;;;6205291;23;20437;-83
2023/05/12 01:00:15;;;;;;;5.00;4.00;;;12.50;99.90;;;;;;6200513;23;20000;-82
2023/05/12 01:02:44;;;;;;;5.60;3.65;;;;;;;;;;6196878;23;19997;-83
2023/05/12 01:05:12;;;;;;;5.05;3.63;;;12.50;99.90;;;;;;6195395;23;20890;-83
2023/05/12 01:07:38;;;;;;;7.13;4.28;;;12.50;99.90;;;;;;6224996;23;20001;-81
2023/05/12 01:10:16;;;;;;;8.20;3.88;;;12.50;99.90;;;;;;6199669;23;20001;-82
2023/05/12 01:12:45;;;;;;;6.35;4.32;;;;;;;;;;6225632;23;20016;-82
2023/05/12 01:15:12;;;;;;;6.50;4.60;;;13.20;99.90;;;;;;6224464;23;20008;-81
2023/05/12 01:17:42;;;;;;;5.30;4.13;;;12.50;99.90;;;;;;6173552;23;20009;-82
2023/05/12 01:20:10;;;;;;;6.40;4.10;;;12.50;99.90;;;;;;6199619;23;20027;-83
2023/05/12 01:22:37;;;;;;;5.95;4.10;;;;;;;;;;6199918;23;20119;-82
2023/05/12 01:25:06;;;;;;;7.38;4.25;;;12.60;99.90;;;;;;6199031;23;20000;-82
2023/05/12 01:27:39;;;;;;;6.18;3.97;;;12.60;99.90;;;;;;6225515;23;20009;-84
2023/05/12 01:30:06;;;;;;;5.10;4.00;;;12.60;99.90;;;;;;6198020;23;20000;-82
2023/05/12 01:32:33;;;;;;;7.50;4.00;;;11.90;99.90;;;;;;6200566;23;20000;-83
2023/05/12 01:56:05;;;;;;;4.90;3.65;;;;;;;;;;6155779;22;1360900;-80
2023/05/12 01:58:31;;;;;;;8.98;4.97;;;;;;;;;;6205160;23;20036;-83
2023/05/12 02:00:59;;;;;;;5.90;3.90;;;12.50;99.90;;;;;;6202589;23;20001;-81
2023/05/12 02:03:25;;;;;;;6.07;4.10;;;12.60;99.90;;;;;;6206703;23;20001;-83
2023/05/12 02:05:54;;;;;;;6.00;4.03;;;12.50;99.90;;;;;;6234004;23;20009;-81
2023/05/12 02:08:20;;;;;;;6.50;4.60;;;;;;;;;;6236156;23;20019;-82
2023/05/12 02:10:46;;;;;;;5.53;4.03;;;12.60;99.90;;;;;;6241234;23;20008;-83
2023/05/12 02:13:15;;;;;;;6.10;4.20;;;;;;;;;;6240324;23;20004;-81
2023/05/12 02:15:43;;;;;;;6.15;4.30;;;12.60;99.90;;;;;;6234977;23;20008;-83
2023/05/12 02:18:13;;;;;;;9.95;4.55;;;12.60;99.90;;;;;;6237361;23;20012;-83
2023/05/12 02:20:39;;;;;;;7.05;4.28;;;;;;;;;;6238538;23;20015;-82
2023/05/12 02:23:08;;;;;;;6.75;4.35;;;12.60;99.90;;;;;;6237378;23;20009;-82
2023/05/12 02:25:36;;;;;;;7.75;5.13;;;;;;;;;;6236567;23;20011;-82
2023/05/12 02:28:09;;;;;;;7.47;4.80;;;;;;;;;;6237060;23;20017;-82
2023/05/12 02:30:36;;;;;;;5.82;4.72;;;12.70;99.90;;;;;;6239163;23;20012;-83
2023/05/12 02:33:04;;;;;;;6.70;4.30;;;;;;;;;;6242655;23;20016;-83
2023/05/12 02:35:36;;;;;;;7.35;4.50;;;12.60;99.90;;;;;;6240482;23;20076;-83
2023/05/12 02:38:06;;;;;;;6.20;3.97;;;12.60;99.90;;;;;;6240069;23;20011;-82
2023/05/12 02:43:57;;;;;;;5.77;4.17;;;12.30;99.90;;;;;;6241717;23;20281;-83
2023/05/12 02:46:37;;;;;;;6.93;4.10;;;;;;;;;;6232825;23;20080;-83
2023/05/12 02:49:03;;;;;;;6.68;4.63;;;;;;;;;;6229961;23;20079;-81
2023/05/12 02:52:02;;;;;;;7.05;4.50;;;12.60;99.90;;;;;;6229044;23;20005;-81
2023/05/12 02:54:30;;;;;;;6.88;4.85;;;12.60;99.90;;;;;;6228466;23;20060;-81
2023/05/12 02:57:04;;;;;;;6.85;4.82;;;12.50;99.90;;;;;;6228868;23;20008;-83
2023/05/12 02:59:36;;;;;;;7.13;4.60;;;12.50;99.90;;;;;;6225108;23;20092;-82
2023/05/12 03:02:04;;;;;;;7.85;5.00;;;;;;;;;;6227958;22;20059;-84
2023/05/12 03:17:50;;;;;;;6.90;4.93;;;12.50;99.90;;;;;;6268490;22;20024;-81
2023/05/12 03:20:25;;;;;;;6.68;4.97;;;;;;;;;;6271664;23;20000;-82
2023/05/12 03:23:01;;;;;;;8.07;5.00;;;12.50;99.90;;;;;;6239990;23;19996;-84
2023/05/12 03:25:43;;;;;;;12.48;5.15;;;12.40;99.90;;;;;;6260618;23;20056;-81
2023/05/12 03:28:15;;;;;;;7.10;5.35;;;12.40;99.90;;;;;;6233955;23;20004;-84
2023/05/12 03:30:41;;;;;;;6.75;5.22;;;;;;;;;;6233478;23;20000;-82
2023/05/12 03:33:38;;;;;;;8.07;4.60;;;12.40;99.90;;;;;;6263274;23;20008;-84
2023/05/12 03:36:34;;;;;;;6.25;4.80;;;12.40;99.90;;;;;;6240356;23;20011;-84
2023/05/12 03:39:08;;;;;;;6.20;4.93;;;;;;;;;;6267976;23;20000;-84
2023/05/12 03:41:38;;;;;;;8.55;5.15;;;12.40;99.90;;;;;;6243881;23;20005;-85
2023/05/12 03:44:44;;;;;;;6.68;4.93;;;12.40;99.90;;;;;;6218848;23;20013;-84
2023/05/12 03:47:13;;;;;;;7.65;5.18;;;;;;;;;;6242318;23;20007;-82
2023/05/12 03:49:53;;;;;;;7.18;5.07;;;12.50;99.90;;;;;;6244324;23;20000;-84
2023/05/12 03:52:31;;;;;;;8.15;5.35;;;;;;;;;;6270476;23;20004;-84
2023/05/12 03:54:57;;;;;;;8.00;5.53;;;;;;;;;;6244946;23;19990;-82
2023/05/12 03:57:24;;;;;;;6.95;5.15;;;;;;;;;;6236341;23;20006;-82
2023/05/12 03:59:55;;;;;;;8.32;4.93;;;12.40;99.90;;;;;;6270045;23;20000;-84
2023/05/12 04:02:23;;;;;;;7.32;5.32;;;;;;;;;;6270962;22;19988;-82
2023/05/12 04:05:15;;;;;;;9.07;5.82;;;12.40;99.90;;;;;;6219364;23;20011;-83
2023/05/12 04:07:42;;;;;;;7.70;5.60;;;;;;;;;;6242834;23;19985;-83
2023/05/12 04:10:09;;;;;;;8.10;5.72;;;12.40;99.90;;;;;;6243041;23;20470;-83
2023/05/12 04:12:43;;;;;;;7.65;5.70;;;12.40;99.90;;;;;;6242714;23;20031;-82
2023/05/12 04:18:22;;;;;;;7.18;4.90;;;12.30;99.90;;;;;;6269509;22;20023;-83
2023/05/12 04:20:48;;;;;;;9.82;6.00;;;;;;;;;;6243365;23;20447;-84
2023/05/12 04:23:39;;;;;;;8.32;5.45;;;12.40;99.90;;;;;;6252686;23;20012;-83
2023/05/12 04:26:07;;;;;;;9.13;6.30;;;;;;;;;;6240255;23;20004;-83
2023/05/12 04:28:59;;;;;;;8.65;5.82;;;12.40;99.90;;;;;;6265190;23;20028;-83
2023/05/12 04:31:25;;;;;;;8.70;6.40;;;;;;;;;;6241258;23;20019;-82
2023/05/12 04:34:27;;;;;;;9.52;6.55;;;12.40;99.90;;;;;;6241541;23;20013;-83
2023/05/12 04:37:54;;;;;;;9.30;5.90;;;12.40;99.90;;;;;;6268126;23;20020;-83
2023/05/12 04:40:21;;;;;;;7.93;5.63;;;12.30;99.90;;;;;;6238369;23;20007;-83
2023/05/12 04:42:55;;;;;;;7.50;5.85;;;12.40;99.90;;;;;;6239577;23;20000;-82
2023/05/12 04:49:29;;;;;;;10.13;6.28;;;12.40;99.90;;;;;;6268003;23;20026;-85
2023/05/12 04:56:07;;;;;;;8.45;6.20;;;12.40;99.90;;;;;;6120130;23;20021;-83
2023/05/12 04:59:24;;;;;;;9.75;5.82;;;12.40;99.90;;;;;;6118867;23;19994;-83
2023/05/12 05:02:22;;;;;;;8.60;6.03;;;12.40;99.90;;;;;;6106195;23;20026;-83
2023/05/12 06:46:24;;;;;;;12.68;6.50;;;12.90;99.90;;;;;;6229779;23;20032;-82
2023/05/12 06:49:34;;;;;;;9.88;6.93;;;12.90;99.90;;;;;;6235423;23;20008;-82
2023/05/12 06:52:06;;;;;;;11.95;6.88;;;;;;;;;;6234646;23;20072;-82
2023/05/12 06:55:02;;;;;;;9.50;6.18;;;12.90;99.90;;;;;;6235758;23;20448;-82
2023/05/12 07:17:02;;;;;;;12.15;6.28;;;13.40;99.90;;;;;;6255409;22;20020;-82
2023/05/12 07:35:49;;;;;;;7.57;4.47;;;;;;;;;;6267412;22;20028;-84
2023/05/12 07:38:17;;;;;;;5.90;4.72;;;;;;;;;;6240501;23;20016;-83
2023/05/12 07:41:22;;;;;;;6.28;4.30;;;13.90;99.90;;;;;;6243226;23;19992;-84
2023/05/12 07:44:08;;;;;;;5.88;4.30;;;14.00;99.90;;;;;;6233039;23;20000;-83
2023/05/12 07:46:43;;;;;;;8.18;4.28;;;;;;;;;;6270335;22;20000;-82
2023/05/12 14:06:55;;;;;;;3.83;2.10;;;16.60;99.90;;;;;;6114829;23;20018;-83
2023/05/12 14:20:18;;;;;;;4.75;2.70;;;16.60;99.90;;;;;;6088966;23;20038;-83
2023/05/12 14:23:39;;;;;;;4.13;2.30;;;16.70;99.90;;;;;;6081264;23;20037;-82
2023/05/12 14:29:59;;;;;;;3.45;2.30;;;16.80;99.90;;;;;;5975005;23;20021;-83
2023/05/12 14:33:28;;;;;;;3.15;2.10;;;17.00;99.90;;;;;;6158970;23;20009;-82
2023/05/12 14:36:41;;;;;;;3.17;2.30;;;16.80;99.90;;;;;;6174872;23;20013;-82
2023/05/12 14:39:51;;;;;;;2.17;1.70;;;17.00;99.90;;;;;;6193009;23;20032;-83
2023/05/12 14:43:02;;;;;;;2.90;1.90;;;17.10;99.90;;;;;;6121262;23;20006;-84
2023/05/12 14:46:38;;;;;;;3.67;2.40;;;17.40;99.90;;;;;;6086649;23;20044;-83
2023/05/12 14:53:11;;;;;;;4.85;2.60;;;17.10;99.90;;;;;;6144520;23;20033;-83
2023/05/12 14:56:22;;;;;;;3.75;2.67;;;17.10;99.90;;;;;;6146211;23;20006;-83
2023/05/12 14:59:52;;;;;;;4.28;2.88;;;17.10;99.90;;;;;;6143504;23;20048;-84
2023/05/12 15:03:08;;;;;;;4.70;3.33;;;17.20;99.90;;;;;;6117200;23;20006;-84
2023/05/12 15:06:44;;;;;;;7.57;3.28;;;17.20;99.90;;;;;;6141787;23;20014;-85
2023/05/12 15:13:50;;;;;;;4.68;2.75;;;17.30;99.90;;;;;;6093361;23;20014;-85
2023/05/12 15:17:22;;;;;;;5.07;2.92;;;17.80;99.90;;;;;;6089560;23;20019;-85
2023/05/12 15:20:52;;;;;;;6.30;3.10;;;17.40;99.90;;;;;;6146085;23;20016;-83
2023/05/12 15:23:57;;;;;;;5.40;3.30;;;17.50;99.90;;;;;;6103977;23;20018;-84
2023/05/12 15:26:57;;;;;;;5.22;3.38;;;17.40;99.90;;;;;;6118299;23;20005;-82
2023/05/12 15:30:22;;;;;;;4.22;3.10;;;17.40;99.90;;;;;;6171492;23;20065;-83
2023/05/12 15:33:38;;;;;;;5.18;3.05;;;17.50;99.90;;;;;;6155725;23;20001;-82
2023/05/12 15:36:57;;;;;;;4.45;3.03;;;17.60;99.90;;;;;;6173207;23;20002;-83
2023/05/12 15:39:51;;;;;;;6.22;3.55;;;17.60;99.90;;;;;;6170238;23;19996;-84
2023/05/12 15:42:39;;;;;;;5.78;2.90;;;17.70;99.90;;;;;;6170646;23;20032;-81
2023/05/12 15:46:16;;;;;;;5.00;3.40;;;17.70;99.90;;;;;;6170811;23;20005;-81
2023/05/12 15:52:23;;;;;;;6.35;3.33;;;17.80;99.90;;;;;;6136722;23;20020;-82
2023/05/12 15:55:13;;;;;;;4.82;3.42;;;17.80;99.90;;;;;;6151300;23;20040;-82
2023/05/12 15:58:09;;;;;;;6.07;3.40;;;17.90;99.90;;;;;;6172990;23;20013;-82
2023/05/12 16:01:10;;;;;;;5.20;3.17;;;17.90;99.90;;;;;;6164003;23;20331;-81
2023/05/12 16:04:10;;;;;;;5.05;2.83;;;17.90;99.90;;;;;;6146663;23;20025;-82
2023/05/12 16:06:58;;;;;;;3.92;2.95;;;18.00;99.90;;;;;;6167507;23;20002;-81
2023/05/12 16:09:26;;;;;;;4.88;3.47;;;;;;;;;;6167058;23;20021;-82
2023/05/12 16:11:56;;;;;;;4.97;3.17;;;18.00;99.90;;;;;;6169524;23;20005;-82
2023/05/12 19:54:33;;;;;;;13.00;5.50;;;14.60;99.90;;;;;;6229014;23;20076;-83
2023/05/12 19:56:59;;;;;;;6.15;5.00;;;;;;;;;;6242740;23;20004;-85
2023/05/12 20:03:05;;;;;;;6.75;4.90;;;14.50;99.90;;;;;;6187375;23;20004;-83
2023/05/12 20:42:04;;;;;;;6.25;4.10;;;14.30;99.90;;;;;;6224198;23;20016;-82
2023/05/12 20:44:59;;;;;;;5.10;3.58;;;;;;;;;;6179305;23;20004;-83
2023/05/12 20:47:55;;;;;;;4.90;3.55;;;14.40;99.90;;;;;;6243602;23;19989;-83
2023/05/12 21:42:37;;;;;;;4.75;2.70;;;14.10;99.90;;;;;;6273259;22;20012;-83
2023/05/12 21:45:51;;;;;;;3.92;2.63;;;14.10;99.90;;;;;;6273603;22;20055;-83
2023/05/12 21:48:28;;;;;;;3.78;2.22;;;14.10;99.90;;;;;;6272043;22;19991;-84
2023/05/12 23:30:04;;;;;;;2.40;1.63;;;13.70;99.90;;;;;;6200418;23;20021;-81
